createdAt,value
2022-12-03T00:00:16.508Z,13.87
2022-12-03T00:05:00.066Z,14.27
2022-12-03T00:09:43.527Z,12.67
2022-12-03T00:14:28.474Z,12.57
2022-12-03T00:19:12.024Z,13.67
2022-12-03T00:23:56.845Z,14.43
2022-12-03T00:28:41.147Z,13.17
2022-12-03T00:33:26.134Z,12.83
2022-12-03T00:38:09.759Z,13.30
2022-12-03T00:42:53.253Z,12.07
2022-12-03T00:47:36.681Z,12.33
2022-12-03T00:52:21.636Z,12.97
2022-12-03T00:57:05.309Z,12.60
2022-12-03T01:01:48.938Z,11.40
2022-12-03T01:06:32.725Z,12.30
2022-12-03T01:11:35.158Z,12.47
2022-12-03T01:16:18.734Z,12.67
2022-12-03T01:21:02.344Z,12.03
2022-12-03T01:25:45.848Z,12.10
2022-12-03T01:30:51.383Z,11.60
2022-12-03T01:35:35.389Z,10.50
2022-12-03T01:40:22.985Z,10.30
2022-12-03T01:45:07.575Z,12.80
2022-12-03T01:49:55.468Z,11.97
2022-12-03T01:54:42.500Z,10.13
2022-12-03T01:59:34.203Z,9.93
2022-12-03T02:04:18.600Z,10.47
2022-12-03T02:09:03.674Z,9.53
2022-12-03T02:13:49.340Z,9.10
2022-12-03T02:18:32.838Z,9.73
2022-12-03T02:23:27.750Z,10.23
2022-12-03T02:28:12.804Z,9.30
2022-12-03T02:32:57.041Z,9.63
2022-12-03T02:37:40.646Z,9.60
2022-12-03T02:42:36.660Z,9.80
2022-12-03T02:47:22.592Z,10.50
2022-12-03T02:52:06.570Z,9.73
2022-12-03T02:56:50.360Z,10.07
2022-12-03T03:01:35.163Z,9.00
2022-12-03T03:06:21.991Z,8.43
2022-12-03T03:11:05.840Z,9.27
2022-12-03T03:15:49.689Z,9.03
2022-12-03T03:20:33.253Z,8.57
2022-12-03T03:25:22.655Z,8.87
2022-12-03T03:30:07.297Z,8.67
2022-12-03T03:34:51.304Z,8.77
2022-12-03T03:39:35.450Z,9.27
2022-12-03T03:44:20.336Z,9.73
2022-12-03T03:49:05.188Z,10.70
2022-12-03T03:53:51.097Z,10.53
2022-12-03T03:58:34.639Z,12.43
2022-12-03T04:03:19.463Z,12.07
2022-12-03T04:08:02.932Z,10.97
2022-12-03T04:12:58.592Z,12.77
2022-12-03T04:17:41.985Z,11.67
2022-12-03T04:22:42.109Z,11.30
2022-12-03T04:27:42.578Z,12.70
2022-12-03T04:32:43.412Z,13.47
2022-12-03T04:37:28.490Z,12.40
2022-12-03T04:42:12.096Z,13.63
2022-12-03T04:46:55.516Z,12.83
2022-12-03T04:51:39.227Z,16.33
2022-12-03T04:56:24.039Z,15.03
2022-12-03T05:01:07.472Z,13.47
2022-12-03T05:05:50.998Z,13.47
2022-12-03T05:10:34.402Z,13.43
2022-12-03T05:15:19.928Z,13.40
2022-12-03T05:20:20.878Z,13.60
2022-12-03T05:25:04.493Z,13.10
2022-12-03T05:29:49.321Z,14.73
2022-12-03T05:34:34.160Z,15.93
2022-12-03T05:39:17.638Z,17.20
2022-12-03T05:44:01.037Z,17.67
2022-12-03T05:48:44.622Z,14.27
2022-12-03T05:53:29.567Z,14.70
2022-12-03T05:58:13.457Z,15.70
2022-12-03T06:02:57.772Z,15.93
2022-12-03T06:07:41.525Z,17.73
2022-12-03T06:12:26.533Z,18.03
2022-12-03T06:17:09.945Z,18.50
2022-12-03T06:21:53.632Z,16.73
2022-12-03T06:26:37.383Z,16.73
2022-12-03T06:31:22.307Z,16.43
2022-12-03T06:36:06.465Z,15.63
2022-12-03T06:40:50.111Z,16.27
2022-12-03T06:45:33.553Z,14.30
2022-12-03T06:50:18.729Z,13.60
2022-12-03T06:55:03.040Z,13.27
2022-12-03T06:59:47.299Z,13.33
2022-12-03T07:04:30.930Z,13.03
2022-12-03T07:09:17.974Z,14.60
2022-12-03T07:14:05.723Z,16.17
2022-12-03T07:18:50.265Z,16.10
2022-12-03T07:23:34.556Z,15.07
2022-12-03T07:28:19.404Z,14.53
2022-12-03T07:33:02.914Z,14.20
2022-12-03T07:37:46.458Z,13.57
2022-12-03T07:42:29.922Z,11.83
2022-12-03T07:47:14.801Z,10.93
2022-12-03T07:51:58.599Z,11.37
2022-12-03T07:56:42.820Z,13.80
2022-12-03T08:01:26.437Z,14.10
2022-12-03T08:06:11.600Z,12.73
2022-12-03T08:10:55.092Z,14.17
2022-12-03T08:15:39.627Z,12.50
2022-12-03T08:20:25.009Z,14.10
2022-12-03T08:25:16.503Z,16.27
2022-12-03T08:30:04.939Z,16.03
2022-12-03T08:34:48.396Z,14.83
2022-12-03T08:39:34.487Z,14.90
2022-12-03T08:44:29.168Z,14.30
2022-12-03T08:49:13.056Z,13.53
2022-12-03T08:54:05.505Z,14.20
2022-12-03T08:58:51.155Z,12.07
2022-12-03T09:03:36.615Z,12.30
2022-12-03T09:08:20.243Z,13.07
2022-12-03T09:13:03.875Z,12.90
2022-12-03T09:17:47.328Z,12.53
2022-12-03T09:22:34.863Z,12.20
2022-12-03T09:27:19.404Z,12.90
2022-12-03T09:32:02.879Z,13.40
2022-12-03T09:36:46.391Z,12.37
2022-12-03T09:41:31.238Z,10.93
2022-12-03T09:46:15.116Z,11.70
2022-12-03T09:50:58.960Z,11.73
2022-12-03T09:55:43.829Z,9.47
2022-12-03T10:00:31.568Z,11.27
2022-12-03T10:05:15.839Z,10.27
2022-12-03T10:09:59.259Z,9.17
2022-12-03T10:14:43.945Z,9.93
2022-12-03T10:19:33.046Z,10.83
2022-12-03T10:24:23.120Z,10.17
2022-12-03T10:29:13.900Z,11.40
2022-12-03T10:34:00.031Z,10.83
2022-12-03T10:38:45.192Z,11.43
2022-12-03T10:43:28.619Z,11.33
2022-12-03T10:48:17.798Z,10.30
2022-12-03T10:53:01.268Z,12.63
2022-12-03T10:57:47.182Z,11.83
2022-12-03T11:02:30.669Z,12.43
2022-12-03T11:07:19.660Z,12.37
2022-12-03T11:12:06.315Z,12.00
2022-12-03T11:17:12.321Z,12.03
2022-12-03T11:22:28.057Z,9.87
2022-12-03T11:27:22.595Z,9.37
2022-12-03T11:32:06.132Z,9.07
2022-12-03T11:37:24.778Z,8.23
2022-12-03T11:42:30.756Z,8.80
2022-12-03T11:47:17.302Z,9.20
2022-12-03T11:52:04.158Z,8.87
2022-12-03T11:56:50.266Z,8.67
2022-12-03T12:01:38.979Z,7.73
2022-12-03T12:06:23.431Z,7.70
2022-12-03T12:11:18.358Z,8.10
2022-12-03T12:16:05.342Z,8.00
2022-12-03T12:20:48.947Z,7.50
2022-12-03T12:25:42.489Z,9.07
2022-12-03T12:30:26.186Z,7.77
2022-12-03T12:35:19.569Z,8.00
2022-12-03T12:40:07.680Z,8.37
2022-12-03T12:44:51.969Z,7.57
2022-12-03T12:49:35.619Z,7.90
2022-12-03T12:54:20.926Z,7.87
2022-12-03T12:59:14.312Z,8.63
2022-12-03T13:03:59.711Z,8.80
2022-12-03T13:08:47.075Z,8.77
2022-12-03T13:13:43.679Z,9.27
2022-12-03T13:18:34.523Z,8.93
2022-12-03T13:23:35.338Z,8.40
2022-12-03T13:28:19.285Z,9.20
2022-12-03T13:33:13.717Z,9.43
2022-12-03T13:37:59.014Z,8.43
2022-12-03T13:42:42.760Z,8.27
2022-12-03T13:47:26.251Z,8.73
2022-12-03T13:52:17.397Z,9.87
2022-12-03T13:57:02.804Z,9.63
2022-12-03T14:01:46.750Z,10.37
2022-12-03T14:06:30.846Z,9.20
2022-12-03T14:11:30.163Z,10.53
2022-12-03T14:16:14.198Z,12.00
2022-12-03T14:20:57.758Z,13.40
2022-12-03T14:25:41.669Z,12.10
2022-12-03T14:30:26.611Z,14.67
2022-12-03T14:35:10.782Z,14.80
2022-12-03T14:39:54.706Z,16.10
2022-12-03T14:44:38.614Z,16.37
2022-12-03T14:49:23.825Z,15.90
2022-12-03T14:54:07.426Z,16.40
2022-12-03T14:58:50.929Z,16.77
2022-12-03T15:03:34.521Z,18.23
2022-12-03T15:08:19.665Z,17.17
2022-12-03T15:13:03.273Z,14.80
2022-12-03T15:17:47.537Z,16.60
2022-12-03T15:22:31.179Z,18.90
2022-12-03T15:27:16.068Z,20.17
2022-12-03T15:32:01.510Z,15.93
2022-12-03T15:36:45.885Z,14.03
2022-12-03T15:41:30.683Z,14.33
2022-12-03T15:46:16.426Z,15.43
2022-12-03T15:51:00.999Z,14.13
2022-12-03T15:55:44.565Z,13.73
2022-12-03T16:00:28.711Z,14.10
2022-12-03T16:05:15.230Z,15.37
2022-12-03T16:09:59.252Z,15.10
2022-12-03T16:14:43.589Z,14.70
2022-12-03T16:19:27.439Z,15.83
2022-12-03T16:24:12.744Z,15.93
2022-12-03T16:28:56.928Z,17.67
2022-12-03T16:33:40.827Z,19.13
2022-12-03T16:38:27.120Z,21.40
2022-12-03T16:43:13.013Z,18.93
2022-12-03T16:47:57.368Z,18.63
2022-12-03T16:52:40.929Z,19.43
2022-12-03T16:57:30.265Z,17.57
2022-12-03T17:02:19.099Z,19.10
2022-12-03T17:07:03.709Z,18.43
2022-12-03T17:11:48.377Z,19.67
2022-12-03T17:16:32.429Z,18.00
2022-12-03T17:21:18.255Z,17.90
2022-12-03T17:26:02.149Z,19.27
2022-12-03T17:30:46.533Z,18.77
2022-12-03T17:35:30.378Z,17.93
2022-12-03T17:40:17.397Z,19.63
2022-12-03T17:45:01.585Z,19.63
2022-12-03T17:49:46.129Z,19.43
2022-12-03T17:54:48.974Z,19.47
2022-12-03T17:59:34.933Z,20.47
2022-12-03T18:04:19.158Z,19.73
2022-12-03T18:09:03.089Z,19.57
2022-12-03T18:13:47.306Z,20.23
2022-12-03T18:18:32.890Z,20.23
2022-12-03T18:23:17.227Z,20.13
2022-12-03T18:28:03.506Z,18.90
2022-12-03T18:32:48.097Z,19.20
2022-12-03T18:37:35.005Z,19.93
2022-12-03T18:42:22.132Z,19.33
2022-12-03T18:47:14.398Z,18.40
2022-12-03T18:51:59.830Z,18.03
2022-12-03T18:56:46.389Z,18.03
2022-12-03T19:01:34.150Z,17.80
2022-12-03T19:06:25.816Z,16.77
2022-12-03T19:11:10.472Z,16.73
2022-12-03T19:15:56.956Z,16.20
2022-12-03T19:20:46.775Z,17.60
2022-12-03T19:25:31.387Z,18.03
2022-12-03T19:30:29.380Z,17.33
2022-12-03T19:35:17.978Z,16.90
2022-12-03T19:40:04.775Z,17.40
2022-12-03T19:44:51.077Z,22.47
2022-12-03T19:49:35.999Z,19.67
2022-12-03T19:54:25.258Z,17.87
2022-12-03T19:59:10.096Z,19.63
2022-12-03T20:03:58.739Z,19.93
2022-12-03T20:08:45.600Z,21.83
2022-12-03T20:13:36.288Z,21.93
2022-12-03T20:18:22.624Z,20.87
2022-12-03T20:23:09.356Z,20.70
2022-12-03T20:27:54.652Z,19.97
2022-12-03T20:32:45.252Z,21.67
2022-12-03T20:37:31.425Z,20.87
2022-12-03T20:42:15.701Z,21.43
2022-12-03T20:47:01.911Z,18.37
2022-12-03T20:51:51.135Z,18.60
2022-12-03T20:56:37.261Z,17.33
2022-12-03T21:01:25.612Z,22.40
2022-12-03T21:06:10.841Z,17.27
2022-12-03T21:10:57.044Z,17.60
2022-12-03T21:15:43.150Z,19.10
2022-12-03T21:20:28.194Z,19.30
2022-12-03T21:25:14.301Z,22.23
2022-12-03T21:30:33.091Z,19.73
2022-12-03T21:35:19.756Z,21.30
2022-12-03T21:40:05.022Z,19.40
2022-12-03T21:44:50.006Z,20.77
2022-12-03T21:49:37.084Z,21.10
2022-12-03T21:54:21.105Z,18.40
2022-12-03T21:59:05.249Z,18.43
2022-12-03T22:03:50.391Z,18.90
2022-12-03T22:08:35.622Z,20.17
2022-12-03T22:13:19.387Z,21.33
2022-12-03T22:18:05.540Z,22.27
2022-12-03T22:22:50.106Z,21.83
2022-12-03T22:27:35.032Z,21.10
2022-12-03T22:32:18.602Z,19.13
2022-12-03T22:37:02.863Z,20.33
2022-12-03T22:41:46.505Z,20.90
2022-12-03T22:46:32.450Z,22.73
2022-12-03T22:51:18.961Z,22.40
2022-12-03T22:56:03.064Z,21.43
2022-12-03T23:05:39.244Z,21.27
2022-12-03T23:10:23.596Z,21.27
2022-12-03T23:15:08.710Z,22.20
2022-12-03T23:19:52.228Z,21.33
2022-12-03T23:24:38.012Z,22.23
2022-12-03T23:29:22.535Z,21.47
2022-12-03T23:34:07.234Z,20.87
2022-12-03T23:38:50.798Z,18.27
2022-12-03T23:43:36.350Z,18.50
2022-12-03T23:48:19.840Z,19.03
2022-12-03T23:53:03.600Z,18.17
2022-12-03T23:57:47.065Z,18.50
